sensor_id;sensor_type;location;lat;lon;timestamp;temperature;humidity
7606;DHT22;3844;53.360;9.738;2022-08-20T00:00:32;17.30;95.70
7606;DHT22;3844;53.360;9.738;2022-08-20T00:02:47;17.30;95.70
7606;DHT22;3844;53.360;9.738;2022-08-20T00:04:50;17.30;95.70
7606;DHT22;3844;53.360;9.738;2022-08-20T00:06:50;17.30;95.70
7606;DHT22;3844;53.360;9.738;2022-08-20T00:08:51;17.30;95.70
7606;DHT22;3844;53.360;9.738;2022-08-20T00:10:53;17.30;95.70
7606;DHT22;3844;53.360;9.738;2022-08-20T00:12:55;17.30;95.70
7606;DHT22;3844;53.360;9.738;2022-08-20T00:14:55;17.30;95.70
7606;DHT22;3844;53.360;9.738;2022-08-20T00:16:56;17.30;95.70
7606;DHT22;3844;53.360;9.738;2022-08-20T00:18:59;17.30;95.70
7606;DHT22;3844;53.360;9.738;2022-08-20T00:21:00;17.30;95.70
7606;DHT22;3844;53.360;9.738;2022-08-20T00:23:00;17.30;95.70
7606;DHT22;3844;53.360;9.738;2022-08-20T00:25:03;17.20;95.70
7606;DHT22;3844;53.360;9.738;2022-08-20T00:27:04;17.20;95.70
7606;DHT22;3844;53.360;9.738;2022-08-20T00:29:05;17.20;95.70
7606;DHT22;3844;53.360;9.738;2022-08-20T00:31:09;17.20;95.70
7606;DHT22;3844;53.360;9.738;2022-08-20T00:33:16;17.20;95.70
7606;DHT22;3844;53.360;9.738;2022-08-20T00:35:20;17.20;95.70
7606;DHT22;3844;53.360;9.738;2022-08-20T00:37:20;17.20;95.70
7606;DHT22;3844;53.360;9.738;2022-08-20T00:39:21;17.10;95.70
7606;DHT22;3844;53.360;9.738;2022-08-20T00:41:24;17.10;95.70
7606;DHT22;3844;53.360;9.738;2022-08-20T00:43:30;17.10;95.70
7606;DHT22;3844;53.360;9.738;2022-08-20T00:45:34;17.20;95.70
7606;DHT22;3844;53.360;9.738;2022-08-20T00:49:36;17.20;95.70
7606;DHT22;3844;53.360;9.738;2022-08-20T00:56:19;17.10;95.70
7606;DHT22;3844;53.360;9.738;2022-08-20T00:58:20;17.10;95.70
7606;DHT22;3844;53.360;9.738;2022-08-20T01:00:37;17.10;95.70
7606;DHT22;3844;53.360;9.738;2022-08-20T01:02:39;17.10;95.70
7606;DHT22;3844;53.360;9.738;2022-08-20T01:04:41;17.00;95.70
7606;DHT22;3844;53.360;9.738;2022-08-20T01:06:55;17.00;95.70
7606;DHT22;3844;53.360;9.738;2022-08-20T01:08:56;16.90;95.70
7606;DHT22;3844;53.360;9.738;2022-08-20T01:10:57;16.90;95.70
7606;DHT22;3844;53.360;9.738;2022-08-20T01:13:18;16.90;95.70
7606;DHT22;3844;53.360;9.738;2022-08-20T01:15:21;16.90;95.70
7606;DHT22;3844;53.360;9.738;2022-08-20T01:17:26;16.90;95.70
7606;DHT22;3844;53.360;9.738;2022-08-20T01:19:32;16.90;95.70
7606;DHT22;3844;53.360;9.738;2022-08-20T01:21:36;16.90;95.70
7606;DHT22;3844;53.360;9.738;2022-08-20T01:23:53;16.90;95.70
7606;DHT22;3844;53.360;9.738;2022-08-20T01:26:11;16.90;95.70
7606;DHT22;3844;53.360;9.738;2022-08-20T01:28:13;16.90;95.70
7606;DHT22;3844;53.360;9.738;2022-08-20T01:30:15;16.90;95.70
7606;DHT22;3844;53.360;9.738;2022-08-20T01:32:16;16.90;95.70
7606;DHT22;3844;53.360;9.738;2022-08-20T01:34:19;16.90;95.70
7606;DHT22;3844;53.360;9.738;2022-08-20T01:37:07;16.90;95.70
7606;DHT22;3844;53.360;9.738;2022-08-20T01:38:43;16.90;95.70
7606;DHT22;3844;53.360;9.738;2022-08-20T01:42:47;16.90;95.70
7606;DHT22;3844;53.360;9.738;2022-08-20T01:44:49;17.00;95.70
7606;DHT22;3844;53.360;9.738;2022-08-20T01:46:53;17.00;95.70
7606;DHT22;3844;53.360;9.738;2022-08-20T01:48:58;17.00;95.70
7606;DHT22;3844;53.360;9.738;2022-08-20T01:51:15;17.10;95.70
7606;DHT22;3844;53.360;9.738;2022-08-20T01:53:30;17.10;95.70
7606;DHT22;3844;53.360;9.738;2022-08-20T01:55:33;17.10;95.70
7606;DHT22;3844;53.360;9.738;2022-08-20T01:57:35;17.10;95.70
7606;DHT22;3844;53.360;9.738;2022-08-20T01:59:35;17.10;95.70
7606;DHT22;3844;53.360;9.738;2022-08-20T02:01:38;17.10;95.70
7606;DHT22;3844;53.360;9.738;2022-08-20T02:03:42;17.00;95.70
7606;DHT22;3844;53.360;9.738;2022-08-20T02:05:43;17.00;95.70
7606;DHT22;3844;53.360;9.738;2022-08-20T02:07:45;16.90;95.70
7606;DHT22;3844;53.360;9.738;2022-08-20T02:09:46;16.80;95.70
7606;DHT22;3844;53.360;9.738;2022-08-20T02:11:47;16.70;95.70
7606;DHT22;3844;53.360;9.738;2022-08-20T02:13:50;16.70;95.70
7606;DHT22;3844;53.360;9.738;2022-08-20T02:15:52;16.70;95.70
7606;DHT22;3844;53.360;9.738;2022-08-20T02:17:52;16.60;95.70
7606;DHT22;3844;53.360;9.738;2022-08-20T02:21:59;16.60;95.70
7606;DHT22;3844;53.360;9.738;2022-08-20T02:24:02;16.60;95.70
7606;DHT22;3844;53.360;9.738;2022-08-20T02:26:03;16.60;95.70
7606;DHT22;3844;53.360;9.738;2022-08-20T02:28:09;16.60;95.70
7606;DHT22;3844;53.360;9.738;2022-08-20T02:30:16;16.50;95.70
7606;DHT22;3844;53.360;9.738;2022-08-20T02:32:18;16.60;95.70
7606;DHT22;3844;53.360;9.738;2022-08-20T02:34:19;16.60;95.70
7606;DHT22;3844;53.360;9.738;2022-08-20T02:36:19;16.50;95.70
7606;DHT22;3844;53.360;9.738;2022-08-20T02:38:20;16.60;95.70
7606;DHT22;3844;53.360;9.738;2022-08-20T02:40:22;16.60;95.70
7606;DHT22;3844;53.360;9.738;2022-08-20T02:42:26;16.50;95.70
7606;DHT22;3844;53.360;9.738;2022-08-20T02:44:26;16.50;95.70
7606;DHT22;3844;53.360;9.738;2022-08-20T02:46:27;16.50;95.70
7606;DHT22;3844;53.360;9.738;2022-08-20T02:48:28;16.50;95.70
7606;DHT22;3844;53.360;9.738;2022-08-20T02:50:29;16.50;95.70
7606;DHT22;3844;53.360;9.738;2022-08-20T02:52:30;16.50;95.70
7606;DHT22;3844;53.360;9.738;2022-08-20T02:54:31;16.40;95.70
7606;DHT22;3844;53.360;9.738;2022-08-20T02:56:32;16.40;95.70
7606;DHT22;3844;53.360;9.738;2022-08-20T02:58:33;16.50;95.70
7606;DHT22;3844;53.360;9.738;2022-08-20T03:00:34;16.40;95.70
7606;DHT22;3844;53.360;9.738;2022-08-20T03:02:35;16.40;95.70
7606;DHT22;3844;53.360;9.738;2022-08-20T03:04:36;16.40;95.70
7606;DHT22;3844;53.360;9.738;2022-08-20T03:06:37;16.40;95.70
7606;DHT22;3844;53.360;9.738;2022-08-20T03:08:39;16.40;95.70
7606;DHT22;3844;53.360;9.738;2022-08-20T03:10:43;16.40;95.70
7606;DHT22;3844;53.360;9.738;2022-08-20T03:12:44;16.40;95.70
7606;DHT22;3844;53.360;9.738;2022-08-20T03:14:45;16.40;95.70
7606;DHT22;3844;53.360;9.738;2022-08-20T03:16:45;16.40;95.70
7606;DHT22;3844;53.360;9.738;2022-08-20T03:18:47;16.40;95.70
7606;DHT22;3844;53.360;9.738;2022-08-20T03:20:48;16.40;95.70
7606;DHT22;3844;53.360;9.738;2022-08-20T03:24:50;16.40;95.70
7606;DHT22;3844;53.360;9.738;2022-08-20T03:26:50;16.40;95.70
7606;DHT22;3844;53.360;9.738;2022-08-20T03:28:51;16.40;95.70
7606;DHT22;3844;53.360;9.738;2022-08-20T03:30:53;16.40;95.70
7606;DHT22;3844;53.360;9.738;2022-08-20T03:32:54;16.40;95.70
7606;DHT22;3844;53.360;9.738;2022-08-20T03:34:55;16.40;95.70
7606;DHT22;3844;53.360;9.738;2022-08-20T03:36:56;16.40;95.70
7606;DHT22;3844;53.360;9.738;2022-08-20T03:38:58;16.30;95.70
7606;DHT22;3844;53.360;9.738;2022-08-20T03:41:01;16.30;95.70
7606;DHT22;3844;53.360;9.738;2022-08-20T03:43:04;16.30;95.70
7606;DHT22;3844;53.360;9.738;2022-08-20T03:45:06;16.40;95.70
7606;DHT22;3844;53.360;9.738;2022-08-20T03:47:07;16.40;95.70
7606;DHT22;3844;53.360;9.738;2022-08-20T03:49:09;16.50;95.70
7606;DHT22;3844;53.360;9.738;2022-08-20T03:51:09;16.50;95.70
7606;DHT22;3844;53.360;9.738;2022-08-20T03:53:12;16.50;95.70
7606;DHT22;3844;53.360;9.738;2022-08-20T03:57:15;16.50;95.70
7606;DHT22;3844;53.360;9.738;2022-08-20T03:59:16;16.50;95.70
7606;DHT22;3844;53.360;9.738;2022-08-20T04:01:17;16.50;95.70
7606;DHT22;3844;53.360;9.738;2022-08-20T04:03:18;16.50;95.70
7606;DHT22;3844;53.360;9.738;2022-08-20T04:05:19;16.50;95.70
7606;DHT22;3844;53.360;9.738;2022-08-20T04:07:23;16.50;95.70
7606;DHT22;3844;53.360;9.738;2022-08-20T04:09:27;16.50;95.70
7606;DHT22;3844;53.360;9.738;2022-08-20T04:11:29;16.50;95.70
7606;DHT22;3844;53.360;9.738;2022-08-20T04:13:30;16.50;95.70
7606;DHT22;3844;53.360;9.738;2022-08-20T04:15:30;16.50;95.70
7606;DHT22;3844;53.360;9.738;2022-08-20T04:17:31;16.50;95.70
7606;DHT22;3844;53.360;9.738;2022-08-20T04:19:33;16.60;95.70
7606;DHT22;3844;53.360;9.738;2022-08-20T04:21:35;16.60;95.70
7606;DHT22;3844;53.360;9.738;2022-08-20T04:23:36;16.60;95.70
7606;DHT22;3844;53.360;9.738;2022-08-20T04:25:37;16.70;95.70
7606;DHT22;3844;53.360;9.738;2022-08-20T04:27:40;16.70;95.70
7606;DHT22;3844;53.360;9.738;2022-08-20T04:29:41;16.70;95.70
7606;DHT22;3844;53.360;9.738;2022-08-20T04:31:45;16.70;95.70
7606;DHT22;3844;53.360;9.738;2022-08-20T04:35:46;16.70;95.70
7606;DHT22;3844;53.360;9.738;2022-08-20T04:37:47;16.70;95.70
7606;DHT22;3844;53.360;9.738;2022-08-20T04:39:48;16.70;95.70
7606;DHT22;3844;53.360;9.738;2022-08-20T04:42:09;16.70;95.70
7606;DHT22;3844;53.360;9.738;2022-08-20T04:44:10;16.70;95.70
7606;DHT22;3844;53.360;9.738;2022-08-20T04:46:11;16.70;95.70
7606;DHT22;3844;53.360;9.738;2022-08-20T04:48:14;16.70;95.70
7606;DHT22;3844;53.360;9.738;2022-08-20T04:50:16;16.80;95.70
7606;DHT22;3844;53.360;9.738;2022-08-20T04:52:17;16.80;95.70
7606;DHT22;3844;53.360;9.738;2022-08-20T04:54:17;16.80;95.70
7606;DHT22;3844;53.360;9.738;2022-08-20T04:56:19;16.80;95.70
7606;DHT22;3844;53.360;9.738;2022-08-20T04:58:35;16.90;95.70
7606;DHT22;3844;53.360;9.738;2022-08-20T05:00:36;16.90;95.70
7606;DHT22;3844;53.360;9.738;2022-08-20T05:02:37;17.00;95.70
7606;DHT22;3844;53.360;9.738;2022-08-20T05:04:37;17.00;95.70
7606;DHT22;3844;53.360;9.738;2022-08-20T05:06:38;17.10;95.70
7606;DHT22;3844;53.360;9.738;2022-08-20T05:08:40;17.10;95.70
7606;DHT22;3844;53.360;9.738;2022-08-20T05:10:42;17.20;95.70
7606;DHT22;3844;53.360;9.738;2022-08-20T05:12:44;17.30;95.70
7606;DHT22;3844;53.360;9.738;2022-08-20T05:14:45;17.50;95.70
7606;DHT22;3844;53.360;9.738;2022-08-20T05:16:46;17.60;95.70
7606;DHT22;3844;53.360;9.738;2022-08-20T05:18:47;17.70;95.70
7606;DHT22;3844;53.360;9.738;2022-08-20T05:20:48;17.80;95.70
7606;DHT22;3844;53.360;9.738;2022-08-20T05:22:48;17.90;95.70
7606;DHT22;3844;53.360;9.738;2022-08-20T05:24:50;18.00;95.70
7606;DHT22;3844;53.360;9.738;2022-08-20T05:26:51;18.10;95.70
7606;DHT22;3844;53.360;9.738;2022-08-20T05:28:54;18.30;95.70
7606;DHT22;3844;53.360;9.738;2022-08-20T05:32:56;18.50;95.70
7606;DHT22;3844;53.360;9.738;2022-08-20T05:34:57;18.70;95.70
7606;DHT22;3844;53.360;9.738;2022-08-20T05:36:57;18.80;95.70
7606;DHT22;3844;53.360;9.738;2022-08-20T05:38:58;18.90;95.70
7606;DHT22;3844;53.360;9.738;2022-08-20T05:40:59;19.00;95.70
7606;DHT22;3844;53.360;9.738;2022-08-20T05:43:01;19.00;95.70
7606;DHT22;3844;53.360;9.738;2022-08-20T05:45:05;19.10;95.60
7606;DHT22;3844;53.360;9.738;2022-08-20T05:47:06;19.10;95.60
7606;DHT22;3844;53.360;9.738;2022-08-20T05:49:13;19.10;95.50
7606;DHT22;3844;53.360;9.738;2022-08-20T05:51:15;19.10;95.40
7606;DHT22;3844;53.360;9.738;2022-08-20T05:53:19;19.10;95.50
7606;DHT22;3844;53.360;9.738;2022-08-20T05:55:21;19.10;95.50
7606;DHT22;3844;53.360;9.738;2022-08-20T05:57:23;19.10;95.70
7606;DHT22;3844;53.360;9.738;2022-08-20T05:59:24;19.00;95.70
7606;DHT22;3844;53.360;9.738;2022-08-20T06:01:25;19.00;95.70
7606;DHT22;3844;53.360;9.738;2022-08-20T06:05:46;18.90;95.70
7606;DHT22;3844;53.360;9.738;2022-08-20T06:07:47;18.90;95.70
7606;DHT22;3844;53.360;9.738;2022-08-20T06:09:50;18.90;95.70
7606;DHT22;3844;53.360;9.738;2022-08-20T06:11:51;18.90;95.70
7606;DHT22;3844;53.360;9.738;2022-08-20T06:13:51;19.00;95.70
7606;DHT22;3844;53.360;9.738;2022-08-20T06:15:52;19.00;95.70
7606;DHT22;3844;53.360;9.738;2022-08-20T06:19:55;19.10;95.70
7606;DHT22;3844;53.360;9.738;2022-08-20T06:21:59;19.20;95.70
7606;DHT22;3844;53.360;9.738;2022-08-20T06:23:59;19.30;95.70
7606;DHT22;3844;53.360;9.738;2022-08-20T06:26:00;19.40;95.70
7606;DHT22;3844;53.360;9.738;2022-08-20T06:28:02;19.50;95.70
7606;DHT22;3844;53.360;9.738;2022-08-20T06:30:03;19.60;95.70
7606;DHT22;3844;53.360;9.738;2022-08-20T06:32:04;19.80;95.70
7606;DHT22;3844;53.360;9.738;2022-08-20T06:34:05;19.80;95.70
7606;DHT22;3844;53.360;9.738;2022-08-20T06:36:07;19.90;95.70
7606;DHT22;3844;53.360;9.738;2022-08-20T06:38:09;20.00;95.70
7606;DHT22;3844;53.360;9.738;2022-08-20T06:40:20;20.00;95.60
7606;DHT22;3844;53.360;9.738;2022-08-20T06:42:22;20.00;95.70
7606;DHT22;3844;53.360;9.738;2022-08-20T06:44:23;20.10;95.10
7606;DHT22;3844;53.360;9.738;2022-08-20T06:46:24;20.20;95.40
7606;DHT22;3844;53.360;9.738;2022-08-20T06:48:25;20.20;95.30
7606;DHT22;3844;53.360;9.738;2022-08-20T06:50:38;20.30;95.30
7606;DHT22;3844;53.360;9.738;2022-08-20T06:52:40;20.30;95.10
7606;DHT22;3844;53.360;9.738;2022-08-20T06:54:40;20.40;95.30
7606;DHT22;3844;53.360;9.738;2022-08-20T06:56:41;20.40;94.80
7606;DHT22;3844;53.360;9.738;2022-08-20T06:58:43;20.40;95.00
7606;DHT22;3844;53.360;9.738;2022-08-20T07:00:44;20.40;94.80
7606;DHT22;3844;53.360;9.738;2022-08-20T07:02:45;20.40;94.90
7606;DHT22;3844;53.360;9.738;2022-08-20T07:04:47;20.50;95.10
7606;DHT22;3844;53.360;9.738;2022-08-20T07:06:48;20.50;95.20
7606;DHT22;3844;53.360;9.738;2022-08-20T07:08:51;20.70;95.20
7606;DHT22;3844;53.360;9.738;2022-08-20T07:10:52;20.90;95.30
7606;DHT22;3844;53.360;9.738;2022-08-20T07:12:53;21.30;94.30
7606;DHT22;3844;53.360;9.738;2022-08-20T07:14:53;21.60;93.60
7606;DHT22;3844;53.360;9.738;2022-08-20T07:16:54;21.80;92.20
7606;DHT22;3844;53.360;9.738;2022-08-20T07:18:55;22.10;89.80
7606;DHT22;3844;53.360;9.738;2022-08-20T07:20:56;22.20;89.20
7606;DHT22;3844;53.360;9.738;2022-08-20T07:22:57;22.20;87.70
7606;DHT22;3844;53.360;9.738;2022-08-20T07:24:58;22.30;88.00
7606;DHT22;3844;53.360;9.738;2022-08-20T07:26:58;22.60;86.80
7606;DHT22;3844;53.360;9.738;2022-08-20T07:28:59;22.70;86.20
7606;DHT22;3844;53.360;9.738;2022-08-20T07:31:00;22.80;85.30
7606;DHT22;3844;53.360;9.738;2022-08-20T07:33:19;22.80;84.00
7606;DHT22;3844;53.360;9.738;2022-08-20T07:35:20;22.80;84.20
7606;DHT22;3844;53.360;9.738;2022-08-20T07:37:21;22.80;85.10
7606;DHT22;3844;53.360;9.738;2022-08-20T07:39:23;23.00;84.90
7606;DHT22;3844;53.360;9.738;2022-08-20T07:41:24;23.20;83.00
7606;DHT22;3844;53.360;9.738;2022-08-20T07:43:25;23.20;82.70
7606;DHT22;3844;53.360;9.738;2022-08-20T07:45:26;23.30;83.00
7606;DHT22;3844;53.360;9.738;2022-08-20T07:47:27;23.40;83.00
7606;DHT22;3844;53.360;9.738;2022-08-20T07:51:29;23.60;81.80
7606;DHT22;3844;53.360;9.738;2022-08-20T07:53:31;23.70;81.60
7606;DHT22;3844;53.360;9.738;2022-08-20T07:55:35;23.90;81.70
7606;DHT22;3844;53.360;9.738;2022-08-20T07:57:36;24.00;80.30
7606;DHT22;3844;53.360;9.738;2022-08-20T07:59:37;24.10;80.20
7606;DHT22;3844;53.360;9.738;2022-08-20T08:01:38;24.10;79.80
7606;DHT22;3844;53.360;9.738;2022-08-20T08:03:38;24.10;79.20
7606;DHT22;3844;53.360;9.738;2022-08-20T08:05:41;24.00;78.60
7606;DHT22;3844;53.360;9.738;2022-08-20T08:07:43;23.90;79.60
7606;DHT22;3844;53.360;9.738;2022-08-20T08:09:45;23.90;80.40
7606;DHT22;3844;53.360;9.738;2022-08-20T08:11:47;23.90;79.90
7606;DHT22;3844;53.360;9.738;2022-08-20T08:13:55;24.00;79.30
7606;DHT22;3844;53.360;9.738;2022-08-20T08:15:57;24.10;79.90
7606;DHT22;3844;53.360;9.738;2022-08-20T08:18:03;24.30;79.90
7606;DHT22;3844;53.360;9.738;2022-08-20T08:20:07;24.40;78.40
7606;DHT22;3844;53.360;9.738;2022-08-20T08:22:11;24.50;77.60
7606;DHT22;3844;53.360;9.738;2022-08-20T08:24:12;24.50;76.60
7606;DHT22;3844;53.360;9.738;2022-08-20T08:26:15;24.60;77.20
7606;DHT22;3844;53.360;9.738;2022-08-20T08:28:15;24.70;78.00
7606;DHT22;3844;53.360;9.738;2022-08-20T08:30:16;24.90;77.80
7606;DHT22;3844;53.360;9.738;2022-08-20T08:32:17;25.10;76.30
7606;DHT22;3844;53.360;9.738;2022-08-20T08:34:18;25.20;74.40
7606;DHT22;3844;53.360;9.738;2022-08-20T08:36:18;25.10;75.50
7606;DHT22;3844;53.360;9.738;2022-08-20T08:38:19;25.00;75.40
7606;DHT22;3844;53.360;9.738;2022-08-20T08:40:22;24.70;73.10
7606;DHT22;3844;53.360;9.738;2022-08-20T08:42:34;24.50;75.00
7606;DHT22;3844;53.360;9.738;2022-08-20T08:44:40;24.30;75.60
7606;DHT22;3844;53.360;9.738;2022-08-20T08:46:43;24.30;74.30
7606;DHT22;3844;53.360;9.738;2022-08-20T08:48:46;24.30;76.20
7606;DHT22;3844;53.360;9.738;2022-08-20T08:50:50;24.50;75.80
7606;DHT22;3844;53.360;9.738;2022-08-20T08:52:54;24.80;75.50
7606;DHT22;3844;53.360;9.738;2022-08-20T08:55:04;25.00;73.40
7606;DHT22;3844;53.360;9.738;2022-08-20T08:57:06;25.30;73.70
7606;DHT22;3844;53.360;9.738;2022-08-20T08:59:08;25.70;72.70
7606;DHT22;3844;53.360;9.738;2022-08-20T09:01:17;26.00;69.30
7606;DHT22;3844;53.360;9.738;2022-08-20T09:03:27;26.10;70.50
7606;DHT22;3844;53.360;9.738;2022-08-20T09:06:06;26.20;69.30
7606;DHT22;3844;53.360;9.738;2022-08-20T09:08:02;26.20;69.60
7606;DHT22;3844;53.360;9.738;2022-08-20T09:10:03;26.40;70.10
7606;DHT22;3844;53.360;9.738;2022-08-20T09:12:11;26.80;68.50
7606;DHT22;3844;53.360;9.738;2022-08-20T09:14:13;27.50;69.40
7606;DHT22;3844;53.360;9.738;2022-08-20T09:16:14;28.40;66.70
7606;DHT22;3844;53.360;9.738;2022-08-20T09:18:14;29.10;65.20
7606;DHT22;3844;53.360;9.738;2022-08-20T09:20:15;29.90;62.70
7606;DHT22;3844;53.360;9.738;2022-08-20T09:22:20;30.10;60.90
7606;DHT22;3844;53.360;9.738;2022-08-20T09:24:21;30.20;59.90
7606;DHT22;3844;53.360;9.738;2022-08-20T09:26:21;30.00;60.20
7606;DHT22;3844;53.360;9.738;2022-08-20T09:28:22;29.70;59.50
7606;DHT22;3844;53.360;9.738;2022-08-20T09:30:23;29.10;60.70
7606;DHT22;3844;53.360;9.738;2022-08-20T09:32:24;28.70;61.40
7606;DHT22;3844;53.360;9.738;2022-08-20T09:34:27;28.20;62.00
7606;DHT22;3844;53.360;9.738;2022-08-20T09:36:31;27.80;63.80
7606;DHT22;3844;53.360;9.738;2022-08-20T09:38:32;27.80;65.20
7606;DHT22;3844;53.360;9.738;2022-08-20T09:40:33;27.60;63.70
7606;DHT22;3844;53.360;9.738;2022-08-20T09:42:36;27.40;64.40
7606;DHT22;3844;53.360;9.738;2022-08-20T09:44:37;27.30;64.00
7606;DHT22;3844;53.360;9.738;2022-08-20T09:46:38;27.20;64.80
7606;DHT22;3844;53.360;9.738;2022-08-20T09:48:39;27.20;64.20
7606;DHT22;3844;53.360;9.738;2022-08-20T09:50:43;27.10;63.20
7606;DHT22;3844;53.360;9.738;2022-08-20T09:52:47;27.10;63.90
7606;DHT22;3844;53.360;9.738;2022-08-20T09:54:49;27.10;62.10
7606;DHT22;3844;53.360;9.738;2022-08-20T09:56:50;27.10;64.80
7606;DHT22;3844;53.360;9.738;2022-08-20T09:58:53;27.20;62.60
7606;DHT22;3844;53.360;9.738;2022-08-20T10:00:54;27.30;64.90
7606;DHT22;3844;53.360;9.738;2022-08-20T10:02:55;27.50;63.80
7606;DHT22;3844;53.360;9.738;2022-08-20T10:04:55;27.70;62.90
7606;DHT22;3844;53.360;9.738;2022-08-20T10:06:56;27.70;63.00
7606;DHT22;3844;53.360;9.738;2022-08-20T10:08:57;27.70;64.00
7606;DHT22;3844;53.360;9.738;2022-08-20T10:10:58;28.00;63.40
7606;DHT22;3844;53.360;9.738;2022-08-20T10:12:59;28.20;63.50
7606;DHT22;3844;53.360;9.738;2022-08-20T10:15:00;28.60;62.90
7606;DHT22;3844;53.360;9.738;2022-08-20T10:17:01;28.70;61.20
7606;DHT22;3844;53.360;9.738;2022-08-20T10:19:03;28.60;61.70
7606;DHT22;3844;53.360;9.738;2022-08-20T10:21:11;28.50;62.30
7606;DHT22;3844;53.360;9.738;2022-08-20T10:23:12;28.40;62.60
7606;DHT22;3844;53.360;9.738;2022-08-20T10:25:12;28.40;62.80
7606;DHT22;3844;53.360;9.738;2022-08-20T10:27:13;28.40;61.80
7606;DHT22;3844;53.360;9.738;2022-08-20T10:29:14;28.20;62.10
7606;DHT22;3844;53.360;9.738;2022-08-20T10:31:15;28.20;63.90
7606;DHT22;3844;53.360;9.738;2022-08-20T10:33:15;28.10;62.20
7606;DHT22;3844;53.360;9.738;2022-08-20T10:35:17;27.90;63.40
7606;DHT22;3844;53.360;9.738;2022-08-20T10:37:23;27.70;62.60
7606;DHT22;3844;53.360;9.738;2022-08-20T10:39:25;27.70;62.80
7606;DHT22;3844;53.360;9.738;2022-08-20T10:41:25;27.80;63.20
7606;DHT22;3844;53.360;9.738;2022-08-20T10:43:27;27.90;63.90
7606;DHT22;3844;53.360;9.738;2022-08-20T10:45:28;27.90;62.40
7606;DHT22;3844;53.360;9.738;2022-08-20T10:47:31;27.90;61.90
7606;DHT22;3844;53.360;9.738;2022-08-20T10:49:34;27.80;61.60
7606;DHT22;3844;53.360;9.738;2022-08-20T10:51:35;27.60;62.60
7606;DHT22;3844;53.360;9.738;2022-08-20T10:53:35;27.50;61.80
7606;DHT22;3844;53.360;9.738;2022-08-20T10:55:36;27.50;63.10
7606;DHT22;3844;53.360;9.738;2022-08-20T10:57:38;27.40;63.80
7606;DHT22;3844;53.360;9.738;2022-08-20T10:59:41;27.30;62.90
7606;DHT22;3844;53.360;9.738;2022-08-20T11:01:42;27.10;63.90
7606;DHT22;3844;53.360;9.738;2022-08-20T11:03:42;27.00;64.60
7606;DHT22;3844;53.360;9.738;2022-08-20T11:05:43;26.80;65.60
7606;DHT22;3844;53.360;9.738;2022-08-20T11:07:44;26.70;65.40
7606;DHT22;3844;53.360;9.738;2022-08-20T11:09:47;26.50;66.50
7606;DHT22;3844;53.360;9.738;2022-08-20T11:11:48;26.30;66.20
7606;DHT22;3844;53.360;9.738;2022-08-20T11:13:48;26.20;67.20
7606;DHT22;3844;53.360;9.738;2022-08-20T11:15:49;26.20;67.70
7606;DHT22;3844;53.360;9.738;2022-08-20T11:17:50;26.30;66.80
7606;DHT22;3844;53.360;9.738;2022-08-20T11:19:51;26.40;65.10
7606;DHT22;3844;53.360;9.738;2022-08-20T11:21:52;26.50;65.50
7606;DHT22;3844;53.360;9.738;2022-08-20T11:23:52;26.70;65.30
7606;DHT22;3844;53.360;9.738;2022-08-20T11:25:53;26.90;63.50
7606;DHT22;3844;53.360;9.738;2022-08-20T11:27:56;26.70;63.60
7606;DHT22;3844;53.360;9.738;2022-08-20T11:29:57;26.60;64.70
7606;DHT22;3844;53.360;9.738;2022-08-20T11:31:58;26.50;65.70
7606;DHT22;3844;53.360;9.738;2022-08-20T11:33:58;26.50;64.70
7606;DHT22;3844;53.360;9.738;2022-08-20T11:38:01;27.10;64.40
7606;DHT22;3844;53.360;9.738;2022-08-20T11:40:03;27.40;63.40
7606;DHT22;3844;53.360;9.738;2022-08-20T11:42:05;27.50;63.40
7606;DHT22;3844;53.360;9.738;2022-08-20T11:44:05;27.30;62.90
7606;DHT22;3844;53.360;9.738;2022-08-20T11:46:06;27.10;63.00
7606;DHT22;3844;53.360;9.738;2022-08-20T11:48:07;27.00;64.20
7606;DHT22;3844;53.360;9.738;2022-08-20T11:50:13;27.10;64.00
7606;DHT22;3844;53.360;9.738;2022-08-20T11:52:14;27.10;63.00
7606;DHT22;3844;53.360;9.738;2022-08-20T11:54:15;27.10;61.90
7606;DHT22;3844;53.360;9.738;2022-08-20T11:56:16;27.10;63.20
7606;DHT22;3844;53.360;9.738;2022-08-20T11:58:18;27.30;61.30
7606;DHT22;3844;53.360;9.738;2022-08-20T12:00:21;27.30;59.70
7606;DHT22;3844;53.360;9.738;2022-08-20T12:02:24;27.60;61.10
7606;DHT22;3844;53.360;9.738;2022-08-20T12:04:25;27.90;59.70
7606;DHT22;3844;53.360;9.738;2022-08-20T12:08:26;28.00;57.30
7606;DHT22;3844;53.360;9.738;2022-08-20T12:10:29;27.90;57.10
7606;DHT22;3844;53.360;9.738;2022-08-20T12:12:30;27.80;57.40
7606;DHT22;3844;53.360;9.738;2022-08-20T12:14:30;27.60;58.80
7606;DHT22;3844;53.360;9.738;2022-08-20T12:16:31;27.50;57.20
7606;DHT22;3844;53.360;9.738;2022-08-20T12:18:32;27.30;58.30
7606;DHT22;3844;53.360;9.738;2022-08-20T12:20:34;27.20;57.90
7606;DHT22;3844;53.360;9.738;2022-08-20T12:22:34;27.10;57.30
7606;DHT22;3844;53.360;9.738;2022-08-20T12:24:36;27.00;56.70
7606;DHT22;3844;53.360;9.738;2022-08-20T12:26:36;27.20;58.50
7606;DHT22;3844;53.360;9.738;2022-08-20T12:28:37;27.70;59.60
7606;DHT22;3844;53.360;9.738;2022-08-20T12:30:38;28.40;57.70
7606;DHT22;3844;53.360;9.738;2022-08-20T12:32:39;28.90;55.10
7606;DHT22;3844;53.360;9.738;2022-08-20T12:34:41;29.10;55.20
7606;DHT22;3844;53.360;9.738;2022-08-20T12:36:42;29.50;56.40
7606;DHT22;3844;53.360;9.738;2022-08-20T12:38:42;30.00;55.70
7606;DHT22;3844;53.360;9.738;2022-08-20T12:40:43;30.50;51.90
7606;DHT22;3844;53.360;9.738;2022-08-20T12:42:44;30.70;50.80
7606;DHT22;3844;53.360;9.738;2022-08-20T12:44:44;30.80;51.00
7606;DHT22;3844;53.360;9.738;2022-08-20T12:46:45;31.10;51.80
7606;DHT22;3844;53.360;9.738;2022-08-20T12:48:46;31.30;49.60
7606;DHT22;3844;53.360;9.738;2022-08-20T12:50:46;31.50;50.30
7606;DHT22;3844;53.360;9.738;2022-08-20T12:52:49;31.60;49.70
7606;DHT22;3844;53.360;9.738;2022-08-20T12:54:50;31.60;46.70
7606;DHT22;3844;53.360;9.738;2022-08-20T12:56:51;31.30;47.30
7606;DHT22;3844;53.360;9.738;2022-08-20T12:58:52;31.00;48.90
7606;DHT22;3844;53.360;9.738;2022-08-20T13:00:52;31.00;49.00
7606;DHT22;3844;53.360;9.738;2022-08-20T13:02:55;30.70;47.90
7606;DHT22;3844;53.360;9.738;2022-08-20T13:04:56;30.60;49.70
7606;DHT22;3844;53.360;9.738;2022-08-20T13:07:00;30.70;49.50
7606;DHT22;3844;53.360;9.738;2022-08-20T13:09:01;30.80;50.00
7606;DHT22;3844;53.360;9.738;2022-08-20T13:11:02;31.20;49.20
7606;DHT22;3844;53.360;9.738;2022-08-20T13:13:03;31.30;49.50
7606;DHT22;3844;53.360;9.738;2022-08-20T13:15:04;31.00;47.50
7606;DHT22;3844;53.360;9.738;2022-08-20T13:17:05;30.90;49.00
7606;DHT22;3844;53.360;9.738;2022-08-20T13:19:06;31.00;49.40
7606;DHT22;3844;53.360;9.738;2022-08-20T13:21:07;31.30;49.80
7606;DHT22;3844;53.360;9.738;2022-08-20T13:23:08;31.40;48.70
7606;DHT22;3844;53.360;9.738;2022-08-20T13:25:10;31.20;47.60
7606;DHT22;3844;53.360;9.738;2022-08-20T13:27:13;30.60;48.70
7606;DHT22;3844;53.360;9.738;2022-08-20T13:29:16;30.00;49.50
7606;DHT22;3844;53.360;9.738;2022-08-20T13:31:16;29.40;50.70
7606;DHT22;3844;53.360;9.738;2022-08-20T13:33:17;28.90;51.40
7606;DHT22;3844;53.360;9.738;2022-08-20T13:35:18;28.90;53.10
7606;DHT22;3844;53.360;9.738;2022-08-20T13:37:24;29.20;52.10
7606;DHT22;3844;53.360;9.738;2022-08-20T13:39:25;29.70;53.20
7606;DHT22;3844;53.360;9.738;2022-08-20T13:43:27;30.40;49.40
7606;DHT22;3844;53.360;9.738;2022-08-20T13:45:28;30.40;49.30
7606;DHT22;3844;53.360;9.738;2022-08-20T13:47:31;30.40;50.40
7606;DHT22;3844;53.360;9.738;2022-08-20T13:49:33;30.30;48.80